Time;durP1;ratioP1;P1;durP2;ratioP2;P2;SDS_P1;SDS_P2;PMS_P1;PMS_P2;Temp;Humidity;BMP_temperature;BMP_pressure;BME280_temperature;BME280_humidity;BME280_pressure;Samples;Min_cycle;Max_cycle;Signal;HPM_P1;HPM_P2
2021/11/22 00:00:41;;;;;;;17.23;12.33;;;6.80;99.90;;;;;;5073427;28;20218;-54
2021/11/22 00:03:07;;;;;;;15.98;11.02;;;6.90;99.90;;;;;;5055213;28;20208;-53
2021/11/22 00:05:34;;;;;;;14.65;11.77;;;7.20;99.90;;;;;;5082648;28;20200;-54
2021/11/22 00:07:59;;;;;;;15.23;11.90;;;7.00;99.90;;;;;;5071699;28;20192;-54
2021/11/22 00:10:25;;;;;;;16.13;11.80;;;7.10;99.90;;;;;;5074531;28;20707;-54
2021/11/22 00:12:52;;;;;;;18.40;12.20;;;7.00;99.90;;;;;;5072886;28;20695;-53
2021/11/22 00:15:18;;;;;;;16.10;11.43;;;7.00;99.90;;;;;;5078619;28;20232;-53
2021/11/22 00:17:44;;;;;;;14.88;11.20;;;7.00;99.90;;;;;;5076562;28;20193;-54
2021/11/22 00:20:14;;;;;;;15.90;12.77;;;7.30;99.90;;;;;;5073622;28;20226;-53
2021/11/22 00:22:40;;;;;;;18.30;13.55;;;6.90;99.90;;;;;;5072207;28;20515;-53
2021/11/22 00:25:06;;;;;;;15.00;11.70;;;6.90;99.90;;;;;;5076728;28;20661;-53
2021/11/22 00:27:32;;;;;;;16.38;12.50;;;6.80;99.90;;;;;;5085422;28;20418;-53
2021/11/22 00:29:58;;;;;;;15.95;12.20;;;6.40;99.90;;;;;;5072174;28;20258;-53
2021/11/22 00:32:24;;;;;;;17.27;12.55;;;6.70;99.90;;;;;;5071729;28;20267;-53
2021/11/22 00:34:55;;;;;;;17.40;12.40;;;7.10;99.90;;;;;;5071488;28;20196;-54
2021/11/22 00:37:24;;;;;;;18.08;12.68;;;6.70;99.90;;;;;;5070233;28;20522;-53
2021/11/22 00:39:50;;;;;;;14.63;12.55;;;6.80;99.90;;;;;;5080143;28;20515;-53
2021/11/22 00:42:15;;;;;;;17.73;13.27;;;7.10;99.90;;;;;;5080519;28;20188;-54
2021/11/22 00:44:42;;;;;;;17.73;13.10;;;6.70;99.90;;;;;;5071556;28;20330;-53
2021/11/22 00:47:09;;;;;;;20.73;13.40;;;7.00;99.90;;;;;;5071026;28;20728;-53
2021/11/22 00:49:36;;;;;;;19.75;13.57;;;6.70;99.90;;;;;;5071835;28;20657;-53
2021/11/22 00:52:04;;;;;;;17.42;12.25;;;6.70;99.90;;;;;;5080052;28;20191;-53
2021/11/22 00:54:30;;;;;;;16.15;12.70;;;6.90;99.90;;;;;;5058450;28;20184;-53
2021/11/22 00:56:56;;;;;;;18.40;13.00;;;6.80;99.90;;;;;;5073293;28;20195;-53
2021/11/22 00:59:22;;;;;;;19.75;12.50;;;6.70;99.90;;;;;;5071744;28;20360;-53
2021/11/22 01:01:50;;;;;;;19.70;13.50;;;6.90;99.90;;;;;;5069510;28;20216;-53
2021/11/22 01:04:17;;;;;;;20.65;14.20;;;7.10;99.90;;;;;;5071250;28;20191;-53
2021/11/22 01:06:42;;;;;;;16.95;12.75;;;7.20;99.90;;;;;;5070977;28;20193;-53
2021/11/22 01:09:08;;;;;;;18.80;13.93;;;7.20;99.90;;;;;;5070892;28;20239;-54
2021/11/22 01:11:34;;;;;;;16.70;12.10;;;7.10;99.90;;;;;;5073527;28;20721;-53
2021/11/22 01:14:00;;;;;;;18.03;12.53;;;7.00;99.90;;;;;;5073602;28;20200;-53
2021/11/22 01:16:28;;;;;;;22.10;14.10;;;7.30;99.90;;;;;;5075269;28;20173;-53
2021/11/22 01:18:54;;;;;;;22.45;13.48;;;7.10;99.90;;;;;;5068408;28;20954;-53
2021/11/22 01:21:19;;;;;;;20.37;13.53;;;6.90;99.90;;;;;;5072549;28;20266;-53
2021/11/22 01:23:45;;;;;;;21.90;14.73;;;7.00;99.90;;;;;;5078158;28;20189;-53
2021/11/22 01:26:11;;;;;;;16.50;13.10;;;6.90;99.90;;;;;;5072339;28;20528;-54
2021/11/22 01:28:37;;;;;;;19.33;13.47;;;7.30;99.90;;;;;;5070516;28;20184;-54
2021/11/22 01:31:02;;;;;;;20.10;15.00;;;7.20;99.90;;;;;;5057088;28;20218;-54
2021/11/22 01:33:28;;;;;;;22.77;14.00;;;7.70;99.90;;;;;;5074112;28;20241;-54
2021/11/22 01:35:55;;;;;;;18.87;13.90;;;7.00;99.90;;;;;;5070317;28;20450;-53
2021/11/22 01:38:21;;;;;;;22.70;14.98;;;7.10;99.90;;;;;;5070690;28;20661;-54
2021/11/22 01:40:47;;;;;;;24.25;15.63;;;6.90;99.90;;;;;;5073911;28;20215;-54
2021/11/22 01:43:16;;;;;;;20.77;14.60;;;7.00;99.90;;;;;;5074081;28;20188;-54
2021/11/22 01:45:48;;;;;;;22.38;15.27;;;6.60;99.90;;;;;;5080599;28;20184;-54
2021/11/22 01:48:16;;;;;;;18.70;14.23;;;6.90;99.90;;;;;;5083744;28;20451;-54
2021/11/22 01:50:42;;;;;;;22.90;14.82;;;6.80;99.90;;;;;;5081185;28;20223;-54
2021/11/22 01:53:08;;;;;;;22.77;15.07;;;7.00;99.90;;;;;;5072651;28;20206;-54
2021/11/22 01:55:34;;;;;;;19.73;13.63;;;7.20;99.90;;;;;;5081807;28;20651;-53
2021/11/22 01:58:01;;;;;;;23.33;15.68;;;7.20;99.90;;;;;;5080207;28;20207;-53
2021/11/22 02:00:34;;;;;;;23.30;14.73;;;6.90;99.90;;;;;;5070143;28;20219;-53
2021/11/22 02:03:01;;;;;;;21.38;14.95;;;7.10;99.90;;;;;;5070722;28;20185;-53
2021/11/22 02:05:27;;;;;;;21.40;14.93;;;6.90;99.90;;;;;;5073172;28;20191;-53
2021/11/22 02:07:53;;;;;;;21.45;15.63;;;6.40;99.90;;;;;;5069989;28;20520;-53
2021/11/22 02:10:19;;;;;;;25.73;15.80;;;6.90;99.90;;;;;;5079142;28;20208;-53
2021/11/22 02:12:46;;;;;;;26.00;14.65;;;6.90;99.90;;;;;;5075113;28;20435;-53
2021/11/22 02:15:12;;;;;;;22.13;15.18;;;7.00;99.90;;;;;;5079593;28;20231;-53
2021/11/22 02:17:40;;;;;;;22.50;15.77;;;7.00;99.90;;;;;;5085399;28;20192;-54
2021/11/22 02:20:11;;;;;;;22.88;14.05;;;7.10;99.90;;;;;;5081317;28;20212;-54
2021/11/22 02:22:37;;;;;;;18.95;14.50;;;7.00;99.90;;;;;;5078805;28;20180;-53
2021/11/22 02:25:07;;;;;;;22.00;15.70;;;6.90;99.90;;;;;;5078793;28;20532;-54
2021/11/22 02:27:33;;;;;;;21.65;15.18;;;7.10;99.90;;;;;;5077811;28;20187;-54
2021/11/22 02:29:59;;;;;;;20.05;14.73;;;7.00;99.90;;;;;;5080748;28;20202;-53
2021/11/22 02:32:25;;;;;;;24.10;14.75;;;6.90;99.90;;;;;;5080079;28;20189;-53
2021/11/22 02:34:51;;;;;;;25.03;14.93;;;6.90;99.90;;;;;;5078987;28;20244;-53
2021/11/22 02:37:16;;;;;;;24.47;15.03;;;6.80;99.90;;;;;;5081064;28;20469;-53
2021/11/22 02:39:42;;;;;;;21.50;14.90;;;7.00;99.90;;;;;;5077573;28;20199;-53
2021/11/22 02:42:13;;;;;;;20.43;14.60;;;6.90;99.90;;;;;;5077363;28;20268;-53
2021/11/22 02:44:38;;;;;;;21.70;13.60;;;7.00;99.90;;;;;;5074529;28;20934;-53
2021/11/22 02:47:04;;;;;;;21.50;15.77;;;6.80;99.90;;;;;;5077795;28;20194;-53
2021/11/22 02:49:30;;;;;;;22.00;14.33;;;7.10;99.90;;;;;;5073996;28;20192;-53
2021/11/22 02:51:55;;;;;;;22.80;14.80;;;6.80;99.90;;;;;;5081402;28;20571;-53
2021/11/22 02:54:21;;;;;;;22.07;14.83;;;6.40;99.90;;;;;;5076863;28;20482;-54
2021/11/22 02:56:47;;;;;;;25.20;17.27;;;7.10;99.90;;;;;;5075638;28;20204;-54
2021/11/22 02:59:13;;;;;;;19.80;14.80;;;6.70;99.90;;;;;;5072607;28;20199;-53
2021/11/22 03:01:39;;;;;;;22.27;17.38;;;6.90;99.90;;;;;;5072566;28;20628;-53
2021/11/22 03:04:05;;;;;;;23.13;16.20;;;7.00;99.90;;;;;;5072783;28;20180;-53
2021/11/22 03:06:30;;;;;;;22.73;15.18;;;6.80;99.90;;;;;;5079189;28;20192;-53
2021/11/22 03:08:56;;;;;;;24.37;16.67;;;6.90;99.90;;;;;;5081526;28;20487;-53
2021/11/22 03:11:22;;;;;;;23.17;16.13;;;6.90;99.90;;;;;;5077621;28;20745;-53
2021/11/22 03:13:49;;;;;;;23.73;15.47;;;6.90;99.90;;;;;;5075300;28;20370;-53
2021/11/22 03:16:16;;;;;;;27.58;17.27;;;7.30;99.90;;;;;;5075053;28;20175;-52
2021/11/22 03:18:42;;;;;;;23.52;16.95;;;7.10;99.90;;;;;;5072339;28;20192;-52
2021/11/22 03:21:08;;;;;;;27.55;17.10;;;6.90;99.90;;;;;;5072262;28;20221;-53
2021/11/22 03:23:35;;;;;;;25.70;16.10;;;7.30;99.90;;;;;;5075883;28;20188;-53
2021/11/22 03:26:01;;;;;;;23.63;16.60;;;6.90;99.90;;;;;;5077181;28;20198;-53
2021/11/22 03:28:28;;;;;;;26.93;16.60;;;6.80;99.90;;;;;;5086583;28;20179;-53
2021/11/22 03:30:54;;;;;;;27.02;16.75;;;7.00;99.90;;;;;;5074643;28;20559;-53
2021/11/22 03:33:20;;;;;;;23.33;17.00;;;6.90;99.90;;;;;;5083437;28;20275;-54
2021/11/22 03:35:48;;;;;;;25.10;16.88;;;6.30;99.90;;;;;;5072427;28;20184;-53
2021/11/22 03:38:15;;;;;;;22.67;15.65;;;6.90;99.90;;;;;;5084368;28;20284;-53
2021/11/22 03:40:43;;;;;;;27.95;17.63;;;7.10;99.90;;;;;;5071913;28;20678;-53
2021/11/22 03:45:36;;;;;;;23.57;16.87;;;6.80;99.90;;;;;;5077020;28;20182;-54
2021/11/22 03:48:03;;;;;;;23.30;16.17;;;6.90;99.90;;;;;;5074179;28;20187;-54
2021/11/22 03:50:29;;;;;;;24.40;16.08;;;6.90;99.90;;;;;;5077941;28;20778;-54
2021/11/22 03:52:54;;;;;;;23.97;16.30;;;6.60;99.90;;;;;;5072204;28;20217;-55
2021/11/22 03:55:20;;;;;;;25.60;16.73;;;6.60;99.90;;;;;;5072731;28;20458;-54
2021/11/22 03:57:46;;;;;;;28.70;17.50;;;6.60;99.90;;;;;;5074964;28;20509;-55
2021/11/22 04:00:13;;;;;;;24.42;16.52;;;6.80;99.90;;;;;;5071970;28;20216;-55
2021/11/22 04:02:39;;;;;;;24.20;15.63;;;6.90;99.90;;;;;;5072312;28;20184;-54
2021/11/22 04:05:05;;;;;;;21.47;15.53;;;6.80;99.90;;;;;;5076497;28;20646;-54
2021/11/22 04:07:31;;;;;;;18.90;15.27;;;7.00;99.90;;;;;;5072461;28;20484;-55
2021/11/22 04:09:57;;;;;;;23.93;14.87;;;7.00;99.90;;;;;;5076867;28;20203;-55
2021/11/22 04:12:23;;;;;;;20.65;15.27;;;6.80;99.90;;;;;;5074964;28;20461;-55
2021/11/22 04:14:49;;;;;;;20.38;14.85;;;6.70;99.90;;;;;;5076172;28;20216;-54
2021/11/22 04:17:15;;;;;;;20.53;15.10;;;6.70;99.90;;;;;;5073004;28;20662;-54
2021/11/22 04:19:41;;;;;;;18.93;13.40;;;6.80;99.90;;;;;;5071911;28;20181;-54
2021/11/22 04:22:07;;;;;;;21.97;14.07;;;6.90;99.90;;;;;;5072165;28;20196;-54
2021/11/22 04:24:32;;;;;;;18.02;13.52;;;6.30;99.90;;;;;;5077270;28;20197;-55
2021/11/22 04:26:58;;;;;;;19.40;14.27;;;6.80;99.90;;;;;;5072445;28;20193;-54
2021/11/22 04:29:24;;;;;;;21.00;15.33;;;6.60;99.90;;;;;;5074231;28;20187;-54
2021/11/22 04:31:50;;;;;;;22.30;15.77;;;6.40;99.90;;;;;;5074902;28;20560;-55
2021/11/22 04:34:15;;;;;;;23.17;14.60;;;6.90;99.90;;;;;;5076817;28;20188;-55
2021/11/22 04:36:41;;;;;;;18.83;14.10;;;6.80;99.90;;;;;;5074579;28;20842;-55
2021/11/22 04:39:07;;;;;;;18.67;14.07;;;6.30;99.90;;;;;;5085417;28;20759;-55
2021/11/22 04:41:33;;;;;;;20.87;14.47;;;7.00;99.90;;;;;;5073019;28;20881;-55
2021/11/22 04:44:02;;;;;;;21.37;14.70;;;7.00;99.90;;;;;;5070967;28;20770;-54
2021/11/22 04:46:27;;;;;;;17.42;12.55;;;6.90;99.90;;;;;;5074730;28;20434;-55
2021/11/22 04:48:53;;;;;;;17.60;13.20;;;6.90;99.90;;;;;;5073776;28;20339;-54
2021/11/22 04:51:19;;;;;;;17.73;12.40;;;6.90;99.90;;;;;;5079897;28;20208;-55
2021/11/22 04:53:44;;;;;;;20.40;13.10;;;6.60;99.90;;;;;;5076935;28;20192;-54
2021/11/22 04:56:10;;;;;;;18.33;13.40;;;6.80;99.90;;;;;;5072692;28;20925;-54
2021/11/22 04:58:36;;;;;;;19.40;12.77;;;6.70;99.90;;;;;;5071367;28;20679;-54
2021/11/22 05:01:02;;;;;;;17.77;13.10;;;6.70;99.90;;;;;;5071981;28;20942;-54
2021/11/22 05:03:28;;;;;;;18.30;12.23;;;6.90;99.90;;;;;;5073320;28;20676;-54
2021/11/22 05:05:53;;;;;;;15.87;12.20;;;7.00;99.90;;;;;;5089466;28;20590;-54
2021/11/22 05:08:19;;;;;;;16.93;12.57;;;7.00;99.90;;;;;;5076938;28;20486;-54
2021/11/22 05:10:45;;;;;;;19.10;12.17;;;6.70;99.90;;;;;;5070686;28;20234;-54
2021/11/22 05:13:14;;;;;;;18.33;12.75;;;6.50;99.90;;;;;;5073789;28;20192;-54
2021/11/22 05:15:40;;;;;;;18.80;14.10;;;6.60;99.90;;;;;;5072454;28;20191;-54
2021/11/22 05:18:08;;;;;;;19.88;13.35;;;6.80;99.90;;;;;;5071085;28;20197;-54
2021/11/22 05:20:35;;;;;;;18.30;12.82;;;6.70;99.90;;;;;;5073037;28;20239;-54
2021/11/22 05:23:01;;;;;;;20.08;13.85;;;6.90;99.90;;;;;;5070616;28;20184;-55
2021/11/22 05:25:27;;;;;;;18.83;12.48;;;6.80;99.90;;;;;;5073753;28;20188;-54
2021/11/22 05:27:53;;;;;;;18.27;14.15;;;6.80;99.90;;;;;;5072178;28;20188;-54
2021/11/22 05:30:22;;;;;;;19.70;14.13;;;7.00;99.90;;;;;;5072374;28;20212;-54
2021/11/22 05:32:48;;;;;;;16.17;12.18;;;7.00;99.90;;;;;;5069488;28;20429;-54
2021/11/22 05:35:14;;;;;;;16.90;12.02;;;7.00;99.90;;;;;;5072541;28;20299;-54
2021/11/22 05:37:41;;;;;;;16.27;12.10;;;6.90;99.90;;;;;;5074709;28;20684;-54
2021/11/22 05:40:07;;;;;;;17.55;12.65;;;6.70;99.90;;;;;;5070117;28;20563;-54
2021/11/22 05:42:33;;;;;;;17.75;13.02;;;6.90;99.90;;;;;;5069528;28;20184;-54
2021/11/22 05:44:59;;;;;;;15.63;11.17;;;7.00;99.90;;;;;;5073069;28;20195;-54
2021/11/22 05:47:25;;;;;;;14.67;10.90;;;6.90;99.90;;;;;;5083023;28;20846;-54
2021/11/22 05:49:51;;;;;;;15.10;11.13;;;6.90;99.90;;;;;;5094955;28;20179;-54
2021/11/22 05:52:18;;;;;;;14.83;10.57;;;6.80;99.90;;;;;;5080728;28;20229;-55
2021/11/22 05:55:02;;;;;;;17.92;11.65;;;6.70;99.90;;;;;;5080581;28;20808;-53
2021/11/22 05:57:28;;;;;;;18.65;12.63;;;6.90;99.90;;;;;;5091464;28;20224;-54
2021/11/22 05:59:54;;;;;;;17.20;11.13;;;6.80;99.90;;;;;;5096058;28;20192;-53
2021/11/22 06:02:19;;;;;;;15.80;12.57;;;6.90;99.90;;;;;;5084838;28;20491;-53
2021/11/22 06:04:45;;;;;;;14.13;11.60;;;6.80;99.90;;;;;;5080335;28;20430;-54
2021/11/22 06:07:11;;;;;;;14.03;10.90;;;6.90;99.90;;;;;;5077799;28;20322;-54
2021/11/22 06:09:37;;;;;;;16.37;12.20;;;6.70;99.90;;;;;;5085884;28;20177;-53
2021/11/22 06:12:03;;;;;;;18.33;11.60;;;7.10;99.90;;;;;;5081315;28;20417;-53
2021/11/22 06:14:28;;;;;;;14.23;11.57;;;7.20;99.90;;;;;;5058827;28;20605;-53
2021/11/22 06:16:54;;;;;;;15.10;10.33;;;6.90;99.90;;;;;;5079851;28;20180;-53
2021/11/22 06:19:20;;;;;;;16.03;11.77;;;7.10;99.90;;;;;;5069336;28;20188;-53
2021/11/22 06:21:46;;;;;;;15.25;10.90;;;6.90;99.90;;;;;;5078178;28;20223;-53
2021/11/22 06:24:12;;;;;;;13.37;9.93;;;7.00;99.90;;;;;;5075876;28;20184;-53
2021/11/22 06:26:38;;;;;;;16.25;11.48;;;6.40;99.90;;;;;;5092926;28;20444;-53
2021/11/22 06:29:04;;;;;;;15.47;11.37;;;6.90;99.90;;;;;;5077367;28;20188;-54
2021/11/22 06:31:30;;;;;;;14.83;10.93;;;7.10;99.90;;;;;;5077726;28;20214;-53
2021/11/22 06:33:56;;;;;;;17.03;12.10;;;7.10;99.90;;;;;;5076393;28;20458;-54
2021/11/22 06:36:21;;;;;;;15.00;11.13;;;6.90;99.90;;;;;;5075985;28;20498;-53
2021/11/22 06:38:47;;;;;;;13.30;10.60;;;7.20;99.90;;;;;;5086339;28;20222;-54
2021/11/22 06:41:13;;;;;;;12.73;10.17;;;6.90;99.90;;;;;;5076297;28;20221;-53
2021/11/22 06:43:39;;;;;;;14.10;10.97;;;7.10;99.90;;;;;;5077691;28;20413;-54
2021/11/22 06:46:04;;;;;;;11.83;9.77;;;7.10;99.90;;;;;;5077016;28;20716;-54
2021/11/22 06:48:30;;;;;;;14.80;10.63;;;7.20;99.90;;;;;;5076000;28;20192;-54
2021/11/22 06:50:56;;;;;;;19.10;9.83;;;7.40;99.90;;;;;;5077044;28;20232;-55
2021/11/22 06:53:22;;;;;;;12.00;9.23;;;7.20;99.90;;;;;;5078858;28;20456;-55
2021/11/22 06:55:49;;;;;;;12.77;9.13;;;7.60;99.90;;;;;;5076135;28;20184;-53
2021/11/22 06:58:14;;;;;;;12.80;9.50;;;7.70;99.90;;;;;;5070746;28;20215;-54
2021/11/22 07:00:40;;;;;;;11.70;9.03;;;7.60;99.90;;;;;;5084477;28;20296;-53
2021/11/22 07:03:06;;;;;;;10.90;9.00;;;7.60;99.90;;;;;;5073435;28;20189;-54
2021/11/22 07:05:32;;;;;;;12.15;9.23;;;7.70;99.90;;;;;;5072677;28;21189;-53
2021/11/22 07:07:58;;;;;;;10.30;8.33;;;7.60;99.90;;;;;;5077440;28;20193;-53
2021/11/22 07:10:24;;;;;;;10.43;8.65;;;7.50;99.90;;;;;;5072603;28;20208;-53
2021/11/22 07:12:51;;;;;;;8.77;6.40;;;7.20;99.90;;;;;;5076490;28;20189;-54
2021/11/22 07:15:21;;;;;;;11.27;9.02;;;8.00;99.90;;;;;;5080271;28;20446;-55
2021/11/22 07:17:48;;;;;;;9.90;8.60;;;8.10;99.90;;;;;;5077943;28;20220;-54
2021/11/22 07:20:14;;;;;;;11.77;8.75;;;8.30;99.90;;;;;;5072136;28;20708;-54
2021/11/22 07:22:39;;;;;;;10.97;9.23;;;8.40;99.90;;;;;;5076925;28;20212;-54
2021/11/22 07:25:06;;;;;;;9.30;7.73;;;8.20;99.90;;;;;;5072343;28;20258;-54
2021/11/22 07:27:32;;;;;;;11.18;7.45;;;8.30;99.90;;;;;;5072815;28;20191;-53
2021/11/22 07:29:57;;;;;;;11.05;8.45;;;7.80;99.90;;;;;;5057200;28;20197;-53
2021/11/22 07:32:26;;;;;;;11.80;8.80;;;7.80;99.90;;;;;;5080452;28;20549;-53
2021/11/22 07:34:53;;;;;;;11.05;7.85;;;7.60;99.90;;;;;;5076916;28;20970;-53
2021/11/22 07:37:20;;;;;;;10.43;9.10;;;7.60;99.90;;;;;;5080741;28;20537;-53
2021/11/22 07:39:45;;;;;;;10.43;9.07;;;7.80;99.90;;;;;;5072698;28;20642;-53
2021/11/22 07:42:12;;;;;;;10.60;8.07;;;7.80;99.90;;;;;;5071776;28;20282;-53
2021/11/22 07:44:38;;;;;;;13.45;9.00;;;7.10;99.90;;;;;;5072020;28;20246;-53
2021/11/22 07:47:04;;;;;;;12.98;8.20;;;7.20;99.90;;;;;;5075134;28;20223;-53
2021/11/22 07:49:31;;;;;;;10.40;8.73;;;7.20;99.90;;;;;;5078176;28;20558;-55
2021/11/22 07:51:57;;;;;;;12.30;9.80;;;6.90;99.90;;;;;;5059927;28;20205;-54
2021/11/22 07:54:23;;;;;;;12.27;8.73;;;7.40;99.90;;;;;;5075901;28;20257;-54
2021/11/22 07:56:49;;;;;;;12.05;9.30;;;6.70;99.90;;;;;;5072125;28;20492;-56
2021/11/22 07:59:15;;;;;;;11.53;8.30;;;7.20;99.90;;;;;;5072101;28;20246;-56
2021/11/22 08:01:41;;;;;;;11.80;8.90;;;7.00;99.90;;;;;;5073916;28;20524;-56
2021/11/22 08:04:12;;;;;;;12.30;9.05;;;7.20;99.90;;;;;;5054658;28;20410;-56
2021/11/22 08:06:41;;;;;;;12.70;10.30;;;7.10;99.90;;;;;;5073643;28;20211;-56
2021/11/22 08:09:13;;;;;;;13.70;10.75;;;6.90;99.90;;;;;;5072318;28;20198;-55
2021/11/22 08:14:23;;;;;;;11.75;9.32;;;7.10;99.90;;;;;;5071282;28;20188;-56
2021/11/22 08:16:49;;;;;;;9.80;7.33;;;7.50;99.90;;;;;;5072075;28;20559;-56
2021/11/22 08:19:15;;;;;;;9.63;7.80;;;7.40;99.90;;;;;;5056094;28;20192;-55
2021/11/22 08:21:40;;;;;;;12.03;7.90;;;7.50;99.90;;;;;;5052306;28;20223;-57
2021/11/22 08:24:06;;;;;;;9.70;7.30;;;7.30;99.90;;;;;;5075154;28;20192;-56
2021/11/22 08:26:32;;;;;;;9.10;7.47;;;7.30;99.90;;;;;;5073620;28;20180;-57
2021/11/22 08:28:57;;;;;;;9.80;7.60;;;7.50;99.90;;;;;;5084141;28;20196;-57
2021/11/22 08:31:23;;;;;;;8.87;7.10;;;7.50;99.90;;;;;;5074114;28;20644;-56
2021/11/22 08:33:49;;;;;;;8.63;7.80;;;7.00;99.90;;;;;;5076910;28;20177;-56
2021/11/22 08:36:14;;;;;;;9.60;7.37;;;7.50;99.90;;;;;;5074655;28;20271;-56
2021/11/22 08:38:40;;;;;;;10.60;7.77;;;7.70;99.90;;;;;;5071702;28;20653;-56
2021/11/22 08:41:06;;;;;;;8.90;8.00;;;7.30;99.90;;;;;;5079854;28;20209;-56
2021/11/22 08:43:31;;;;;;;9.43;7.07;;;7.50;99.90;;;;;;5071975;28;20449;-56
2021/11/22 08:45:57;;;;;;;9.80;7.50;;;7.60;99.90;;;;;;5074849;28;20302;-55
2021/11/22 08:48:25;;;;;;;8.80;7.90;;;7.80;99.90;;;;;;5070579;28;20193;-56
2021/11/22 08:50:51;;;;;;;7.68;6.88;;;7.80;99.90;;;;;;5076532;28;20222;-56
2021/11/22 08:53:16;;;;;;;8.70;6.90;;;7.60;99.90;;;;;;5074470;28;20188;-56
2021/11/22 08:55:42;;;;;;;8.70;7.63;;;7.70;99.90;;;;;;5076774;28;20480;-56
2021/11/22 08:58:08;;;;;;;6.97;6.23;;;7.50;99.90;;;;;;5070446;28;20668;-55
2021/11/22 09:00:36;;;;;;;8.40;7.17;;;7.40;99.90;;;;;;5065492;28;20215;-56
2021/11/22 09:03:02;;;;;;;7.22;6.53;;;7.40;99.90;;;;;;5075915;28;20189;-54
2021/11/22 09:05:28;;;;;;;8.47;7.20;;;7.50;99.90;;;;;;5071405;28;20314;-54
2021/11/22 09:07:54;;;;;;;9.33;6.97;;;7.60;99.90;;;;;;5081070;28;20177;-56
2021/11/22 09:10:22;;;;;;;7.65;6.65;;;7.50;99.90;;;;;;5074251;28;20461;-54
2021/11/22 09:12:48;;;;;;;9.70;8.40;;;7.70;99.90;;;;;;5074822;28;20188;-54
2021/11/22 09:15:14;;;;;;;9.27;7.37;;;7.60;99.90;;;;;;5083578;28;20185;-55
2021/11/22 09:17:39;;;;;;;8.53;7.50;;;7.60;99.90;;;;;;5073228;28;20584;-54
2021/11/22 09:20:09;;;;;;;8.63;7.20;;;7.40;99.90;;;;;;5077694;28;20818;-55
2021/11/22 09:22:34;;;;;;;10.82;7.30;;;7.40;99.90;;;;;;5070377;28;20438;-57
2021/11/22 09:25:01;;;;;;;10.47;7.60;;;7.70;99.90;;;;;;5076828;28;20424;-55
2021/11/22 09:27:26;;;;;;;8.50;7.55;;;7.50;99.90;;;;;;5081062;28;20177;-57
2021/11/22 09:29:52;;;;;;;9.70;7.50;;;7.50;99.90;;;;;;5073582;28;20266;-56
2021/11/22 09:32:18;;;;;;;9.90;7.00;;;7.60;99.90;;;;;;5070295;28;20283;-55
2021/11/22 09:34:43;;;;;;;12.60;7.60;;;7.10;99.90;;;;;;5070904;28;20203;-55
2021/11/22 09:37:09;;;;;;;13.67;8.33;;;7.80;99.90;;;;;;5069505;28;20192;-55
2021/11/22 09:39:35;;;;;;;12.40;8.53;;;7.50;99.90;;;;;;5074171;28;20198;-54
2021/11/22 09:42:00;;;;;;;13.20;8.60;;;7.70;99.90;;;;;;5073288;28;20205;-56
2021/11/22 09:44:26;;;;;;;11.40;8.33;;;7.50;99.90;;;;;;5075367;28;20487;-56
2021/11/22 09:46:53;;;;;;;10.23;7.27;;;7.80;99.90;;;;;;5072750;28;20215;-56
2021/11/22 09:49:20;;;;;;;9.20;7.85;;;7.90;99.90;;;;;;5076895;28;20199;-56
2021/11/22 09:51:45;;;;;;;9.85;7.38;;;7.80;99.90;;;;;;5082484;28;20617;-56
2021/11/22 09:54:11;;;;;;;8.20;7.37;;;7.90;99.90;;;;;;5070143;28;20215;-56
2021/11/22 09:56:38;;;;;;;8.25;7.32;;;7.80;99.90;;;;;;5071169;28;20210;-55
2021/11/22 09:59:04;;;;;;;8.35;6.80;;;7.90;99.90;;;;;;5072264;28;20649;-56
2021/11/22 10:01:33;;;;;;;10.18;7.07;;;7.90;99.90;;;;;;5069997;28;20635;-56
2021/11/22 10:04:19;;;;;;;7.90;6.50;;;7.90;99.90;;;;;;5075701;28;20222;-56
2021/11/22 10:06:53;;;;;;;8.85;7.40;;;7.50;99.90;;;;;;5069521;28;20200;-56
2021/11/22 10:09:49;;;;;;;14.25;8.07;;;8.00;99.90;;;;;;5070465;28;20204;-55
2021/11/22 10:12:24;;;;;;;10.73;7.43;;;7.90;99.90;;;;;;5069798;28;20228;-56
2021/11/22 10:14:50;;;;;;;10.70;7.70;;;8.10;99.90;;;;;;5085029;28;20208;-56
2021/11/22 10:17:33;;;;;;;10.03;7.37;;;8.20;99.90;;;;;;5076008;28;20643;-56
2021/11/22 10:20:12;;;;;;;12.90;8.48;;;8.50;99.90;;;;;;5075399;28;20209;-56
2021/11/22 10:23:04;;;;;;;11.73;7.50;;;8.50;99.90;;;;;;5073041;28;20173;-56
2021/11/22 10:25:38;;;;;;;12.82;7.82;;;8.40;99.90;;;;;;5072557;28;20215;-56
2021/11/22 10:28:06;;;;;;;10.88;7.63;;;8.70;99.90;;;;;;5079646;28;20284;-54
2021/11/22 10:30:35;;;;;;;8.15;7.30;;;8.60;99.90;;;;;;5087868;28;20268;-55
2021/11/22 10:33:02;;;;;;;8.73;7.07;;;8.50;99.90;;;;;;5072126;28;20613;-55
2021/11/22 10:35:32;;;;;;;9.15;7.65;;;8.50;99.90;;;;;;5071470;28;20260;-55
2021/11/22 10:38:00;;;;;;;7.50;6.70;;;8.70;99.90;;;;;;5055303;28;20671;-55
2021/11/22 10:40:28;;;;;;;8.45;7.28;;;8.60;99.90;;;;;;5075018;28;20613;-55
2021/11/22 10:42:56;;;;;;;8.82;7.88;;;8.70;99.90;;;;;;5073154;28;20507;-55
2021/11/22 10:45:40;;;;;;;8.40;6.38;;;8.60;99.90;;;;;;5089261;28;20180;-55
2021/11/22 10:48:22;;;;;;;8.63;7.07;;;8.80;99.90;;;;;;5076204;28;20200;-56
2021/11/22 10:51:12;;;;;;;8.70;7.50;;;8.90;99.90;;;;;;5072990;28;20200;-55
2021/11/22 10:53:44;;;;;;;10.55;7.50;;;8.80;99.90;;;;;;5074985;28;20185;-56
2021/11/22 10:56:16;;;;;;;10.93;8.00;;;8.80;99.90;;;;;;5078834;28;20192;-56
2021/11/22 10:59:02;;;;;;;14.43;8.43;;;8.70;99.90;;;;;;5071975;28;20271;-56
2021/11/22 11:01:33;;;;;;;9.68;7.75;;;8.80;99.90;;;;;;5081455;28;20294;-57
2021/11/22 11:04:05;;;;;;;9.30;7.05;;;8.50;99.90;;;;;;5075505;28;20191;-56
2021/11/22 11:06:41;;;;;;;10.00;8.38;;;8.70;99.90;;;;;;5082212;28;20185;-55
2021/11/22 11:09:11;;;;;;;9.75;7.60;;;8.60;99.90;;;;;;5075386;28;20190;-55
2021/11/22 11:11:36;;;;;;;10.82;8.40;;;8.90;99.90;;;;;;5078053;28;20233;-55
2021/11/22 11:14:05;;;;;;;9.10;7.40;;;8.90;99.90;;;;;;5083763;28;20614;-55
2021/11/22 11:16:31;;;;;;;10.45;7.63;;;9.10;99.90;;;;;;5082557;28;20187;-55
2021/11/22 11:19:02;;;;;;;8.70;7.57;;;9.00;99.90;;;;;;5077678;28;20192;-55
2021/11/22 11:21:32;;;;;;;10.77;9.55;;;9.20;99.90;;;;;;5072419;28;20213;-55
2021/11/22 11:24:00;;;;;;;8.40;7.18;;;9.20;99.90;;;;;;5079317;28;20272;-54
2021/11/22 11:26:26;;;;;;;10.77;6.70;;;8.80;99.90;;;;;;5079923;28;20649;-55
2021/11/22 11:28:54;;;;;;;10.75;7.53;;;9.20;99.90;;;;;;5076187;28;20494;-55
2021/11/22 11:31:21;;;;;;;12.15;7.10;;;9.00;99.90;;;;;;5074065;28;20642;-55
2021/11/22 11:33:47;;;;;;;9.73;7.38;;;9.20;99.90;;;;;;5079168;28;20191;-55
2021/11/22 11:36:41;;;;;;;8.90;7.53;;;8.90;99.90;;;;;;5086004;28;20750;-55
2021/11/22 11:39:10;;;;;;;7.43;6.53;;;8.80;99.90;;;;;;5038090;28;20658;-55
2021/11/22 11:42:17;;;;;;;7.13;6.43;;;8.90;99.90;;;;;;5083754;28;20212;-55
2021/11/22 11:45:04;;;;;;;8.75;7.35;;;8.80;99.90;;;;;;5060862;28;20292;-55
2021/11/22 11:47:53;;;;;;;10.27;6.90;;;8.70;99.90;;;;;;5071151;28;20177;-55
2021/11/22 11:50:30;;;;;;;7.22;6.22;;;8.90;99.90;;;;;;5054369;28;20212;-54
2021/11/22 11:52:59;;;;;;;11.07;7.30;;;8.80;99.90;;;;;;5072135;28;20296;-55
2021/11/22 11:55:26;;;;;;;7.50;6.07;;;8.80;99.90;;;;;;5078982;28;21946;-54
2021/11/22 11:58:25;;;;;;;9.05;6.15;;;8.60;99.90;;;;;;5077424;28;20260;-56
2021/11/22 12:01:01;;;;;;;7.57;6.43;;;8.80;99.90;;;;;;5084254;28;20204;-56
2021/11/22 12:03:30;;;;;;;6.78;6.18;;;8.60;99.90;;;;;;5077212;28;20187;-56
2021/11/22 12:05:58;;;;;;;13.15;6.00;;;8.70;99.90;;;;;;5077087;28;20211;-53
2021/11/22 12:08:29;;;;;;;6.50;5.50;;;7.90;99.90;;;;;;5080611;28;20330;-53
2021/11/22 12:11:03;;;;;;;9.25;5.88;;;8.60;99.90;;;;;;5074600;28;20201;-54
2021/11/22 12:13:49;;;;;;;6.15;5.55;;;8.80;99.90;;;;;;5077450;28;20233;-53
2021/11/22 12:16:40;;;;;;;8.48;5.72;;;8.30;99.90;;;;;;5077371;28;20192;-56
2021/11/22 12:19:34;;;;;;;8.82;6.47;;;8.40;99.90;;;;;;5074617;28;20184;-56
2021/11/22 12:22:12;;;;;;;6.35;5.75;;;8.50;99.90;;;;;;5072206;28;20311;-53
2021/11/22 12:24:41;;;;;;;5.68;5.07;;;8.50;99.90;;;;;;5072612;28;20276;-53
2021/11/22 12:27:28;;;;;;;6.00;5.40;;;8.20;99.90;;;;;;5081695;28;20192;-52
2021/11/22 12:29:56;;;;;;;7.32;5.88;;;8.60;99.90;;;;;;5075157;28;20634;-54
2021/11/22 12:32:33;;;;;;;7.03;5.57;;;8.50;99.90;;;;;;5078905;28;20248;-54
2021/11/22 12:35:05;;;;;;;6.80;5.85;;;8.40;99.90;;;;;;5074099;28;20200;-55
2021/11/22 12:37:33;;;;;;;5.03;4.53;;;8.40;99.90;;;;;;5070594;28;20187;-54
2021/11/22 12:40:14;;;;;;;7.47;5.85;;;8.20;99.90;;;;;;5080838;28;20234;-54
2021/11/22 12:42:53;;;;;;;6.30;5.57;;;8.50;99.90;;;;;;5070863;28;20188;-54
2021/11/22 12:45:19;;;;;;;6.53;5.13;;;8.40;99.90;;;;;;5053610;28;20185;-53
2021/11/22 12:47:47;;;;;;;5.70;5.20;;;8.20;99.90;;;;;;5081752;28;20185;-55
2021/11/22 12:50:21;;;;;;;8.27;4.82;;;8.40;99.90;;;;;;5071545;28;20216;-54
2021/11/22 12:53:11;;;;;;;6.78;5.03;;;8.30;99.90;;;;;;5075087;28;20257;-54